Time;durP1;ratioP1;P1;durP2;ratioP2;P2;SDS_P1;SDS_P2;PMS_P1;PMS_P2;Temp;Humidity;BMP_temperature;BMP_pressure;BME280_temperature;BME280_humidity;BME280_pressure;Samples;Min_cycle;Max_cycle;Signal;HPM_P1;HPM_P2
2022/07/26 00:00:55;;;;;;;;;;;18.10;76.80;;;;;;5034575;28;19928;-74
2022/07/26 00:03:22;;;;;;;;;;;18.00;77.00;;;;;;4985602;28;19928;-74
2022/07/26 00:05:50;;;;;;;;;;;18.00;77.10;;;;;;5035369;28;19928;-74
2022/07/26 00:08:17;;;;;;;;;;;17.90;77.30;;;;;;5034221;28;19928;-74
2022/07/26 00:10:46;;;;;;;;;;;17.80;77.40;;;;;;5035705;28;20023;-74
2022/07/26 00:13:16;;;;;;;;;;;17.70;77.70;;;;;;5035435;28;20294;-74
2022/07/26 00:15:44;;;;;;;;;;;17.70;77.80;;;;;;5034101;28;19922;-74
2022/07/26 00:18:11;;;;;;;;;;;17.70;77.80;;;;;;5034988;28;19932;-74
2022/07/26 00:20:39;;;;;;;;;;;17.60;78.00;;;;;;5000887;28;19929;-74
2022/07/26 00:23:07;;;;;;;;;;;17.60;78.10;;;;;;5035057;28;19921;-74
2022/07/26 00:25:35;;;;;;;;;;;17.50;78.30;;;;;;5017973;28;19921;-74
2022/07/26 00:28:03;;;;;;;;;;;17.50;78.60;;;;;;5016643;28;19928;-74
2022/07/26 00:30:30;;;;;;;;;;;17.50;78.70;;;;;;5017763;28;19921;-74
2022/07/26 00:32:58;;;;;;;;;;;17.40;78.90;;;;;;4985214;28;19921;-74
2022/07/26 00:35:25;;;;;;;;;;;17.40;79.00;;;;;;5016603;28;19921;-74
2022/07/26 00:37:52;;;;;;;;;;;17.30;79.40;;;;;;5017778;28;19921;-74
2022/07/26 00:40:20;;;;;;;;;;;17.30;79.50;;;;;;5034713;28;19921;-74
2022/07/26 00:42:47;;;;;;;;;;;17.40;79.70;;;;;;5056979;28;19921;-74
2022/07/26 00:45:16;;;;;;;;;;;17.30;79.60;;;;;;5058166;28;19921;-74
2022/07/26 00:47:43;;;;;;;;;;;17.30;79.80;;;;;;5058045;28;20359;-74
2022/07/26 00:50:14;;;;;;;;;;;17.30;79.90;;;;;;5059358;28;19921;-75
2022/07/26 00:52:45;;;;;;;;;;;17.30;80.00;;;;;;5058852;28;19932;-74
2022/07/26 00:55:13;;;;;;;;;;;17.30;80.10;;;;;;5056868;28;20275;-74
2022/07/26 00:57:41;;;;;;;;;;;17.30;80.10;;;;;;5057995;28;19924;-74
2022/07/26 01:00:10;;;;;;;;;;;17.30;80.10;;;;;;5058481;28;19931;-74
2022/07/26 01:02:38;;;;;;;;;;;17.30;80.40;;;;;;5057369;28;19932;-74
2022/07/26 01:05:06;;;;;;;;;;;17.30;80.20;;;;;;5058065;28;19920;-74
2022/07/26 01:07:34;;;;;;;;;;;17.40;80.40;;;;;;5040136;28;19928;-74
2022/07/26 01:10:03;;;;;;;;;;;17.30;80.30;;;;;;5057772;28;19920;-74
2022/07/26 01:12:30;;;;;;;;;;;17.40;80.30;;;;;;5058258;28;19928;-74
2022/07/26 01:14:57;;;;;;;;;;;17.40;80.30;;;;;;5040261;28;20287;-74
2022/07/26 01:17:25;;;;;;;;;;;17.40;80.40;;;;;;5058266;28;19920;-73
2022/07/26 01:19:52;;;;;;;;;;;17.40;80.40;;;;;;5057736;28;19927;-74
2022/07/26 01:22:20;;;;;;;;;;;17.40;80.10;;;;;;5057142;28;19932;-73
2022/07/26 01:24:47;;;;;;;;;;;17.40;80.30;;;;;;5058006;28;19921;-73
2022/07/26 01:27:14;;;;;;;;;;;17.40;80.70;;;;;;5056170;28;20267;-73
2022/07/26 01:29:42;;;;;;;;;;;17.30;80.50;;;;;;5057113;28;19921;-74
2022/07/26 01:32:09;;;;;;;;;;;17.30;80.60;;;;;;5057082;28;19924;-74
2022/07/26 01:34:37;;;;;;;;;;;17.30;80.80;;;;;;5056252;28;19931;-74
2022/07/26 01:37:04;;;;;;;;;;;17.30;80.70;;;;;;5056938;28;19920;-74
2022/07/26 01:39:32;;;;;;;;;;;17.30;80.80;;;;;;5055740;28;20254;-73
2022/07/26 01:41:59;;;;;;;;;;;17.30;81.00;;;;;;5036765;28;20382;-74
2022/07/26 01:44:27;;;;;;;;;;;17.30;81.30;;;;;;5020412;28;20372;-74
2022/07/26 01:46:54;;;;;;;;;;;17.30;81.20;;;;;;5020929;28;20370;-74
2022/07/26 01:49:21;;;;;;;;;;;17.30;81.10;;;;;;5036497;28;19928;-74
2022/07/26 01:51:49;;;;;;;;;;;17.40;81.40;;;;;;5020334;28;19925;-74
2022/07/26 01:54:16;;;;;;;;;;;17.40;81.30;;;;;;5036470;28;19921;-74
2022/07/26 01:56:50;;;;;;;;;;;17.40;81.30;;;;;;5020750;28;20275;-74
2022/07/26 01:59:18;;;;;;;;;;;17.40;81.20;;;;;;5037487;28;19920;-74
2022/07/26 02:01:45;;;;;;;;;;;17.50;81.30;;;;;;5003065;28;20367;-73
2022/07/26 02:04:57;;;;;;;;;;;17.50;81.10;;;;;;5020292;28;19921;-73
2022/07/26 02:07:00;;;;;;;;;;;17.50;81.40;;;;;;5037919;28;19925;-74
2022/07/26 02:09:35;;;;;;;;;;;17.50;81.30;;;;;;5019390;28;19932;-74
2022/07/26 02:12:06;;;;;;;;;;;17.50;81.60;;;;;;5037394;28;19921;-73
2022/07/26 02:14:33;;;;;;;;;;;17.50;81.60;;;;;;5036436;28;19921;-73
2022/07/26 02:17:01;;;;;;;;;;;17.50;81.60;;;;;;5037294;28;19921;-74
2022/07/26 02:19:29;;;;;;;;;;;17.50;81.60;;;;;;5020528;28;19924;-74
2022/07/26 02:21:56;;;;;;;;;;;17.50;81.60;;;;;;5035998;28;19920;-73
2022/07/26 02:24:27;;;;;;;;;;;17.50;81.60;;;;;;5037077;28;19932;-73
2022/07/26 02:26:55;;;;;;;;;;;17.50;81.80;;;;;;5003707;28;19921;-73
2022/07/26 02:29:23;;;;;;;;;;;17.50;81.80;;;;;;5035834;28;19921;-73
2022/07/26 02:31:51;;;;;;;;;;;17.50;81.90;;;;;;5003334;28;20268;-73
2022/07/26 02:34:19;;;;;;;;;;;17.60;81.90;;;;;;5036353;28;19921;-73
2022/07/26 02:36:46;;;;;;;;;;;17.50;81.90;;;;;;5019609;28;19921;-73
2022/07/26 02:39:14;;;;;;;;;;;17.50;82.30;;;;;;5036749;28;20236;-73
2022/07/26 02:41:41;;;;;;;;;;;17.60;82.30;;;;;;5035506;28;19932;-74
2022/07/26 02:44:08;;;;;;;;;;;17.50;82.40;;;;;;5036616;28;19921;-73
2022/07/26 02:46:37;;;;;;;;;;;17.60;82.60;;;;;;5019504;28;19929;-74
2022/07/26 02:49:04;;;;;;;;;;;17.50;82.70;;;;;;5018204;28;19928;-74
2022/07/26 02:51:32;;;;;;;;;;;17.60;82.90;;;;;;5003171;28;20367;-74
2022/07/26 02:53:59;;;;;;;;;;;17.60;83.00;;;;;;5035478;28;19940;-74
2022/07/26 02:56:27;;;;;;;;;;;17.60;82.90;;;;;;5036406;28;19921;-73
2022/07/26 02:58:54;;;;;;;;;;;17.60;83.00;;;;;;5019259;28;19928;-73
2022/07/26 03:01:22;;;;;;;;;;;17.60;83.20;;;;;;5001113;28;19921;-73
2022/07/26 03:03:49;;;;;;;;;;;17.30;83.10;;;;;;5036765;28;19932;-73
2022/07/26 03:06:18;;;;;;;;;;;17.50;83.50;;;;;;5036145;28;19921;-73
2022/07/26 03:08:46;;;;;;;;;;;17.50;83.60;;;;;;5017816;28;19921;-73
2022/07/26 03:11:14;;;;;;;;;;;17.40;83.70;;;;;;5018874;28;19921;-73
2022/07/26 03:13:41;;;;;;;;;;;17.40;83.90;;;;;;5019409;28;19921;-73
2022/07/26 03:16:08;;;;;;;;;;;17.40;84.00;;;;;;5017842;28;19921;-73
2022/07/26 03:18:36;;;;;;;;;;;17.40;84.30;;;;;;5036087;28;19928;-73
2022/07/26 03:21:03;;;;;;;;;;;17.40;84.30;;;;;;5035094;28;19921;-73
2022/07/26 03:23:33;;;;;;;;;;;17.40;84.40;;;;;;5018618;28;19925;-73
2022/07/26 03:26:01;;;;;;;;;;;17.40;84.40;;;;;;5035691;28;19924;-73
2022/07/26 03:28:30;;;;;;;;;;;17.40;84.50;;;;;;5017714;28;20268;-73
2022/07/26 03:30:57;;;;;;;;;;;17.40;84.50;;;;;;5035876;28;19928;-74
2022/07/26 03:33:25;;;;;;;;;;;17.40;84.80;;;;;;5002657;28;19920;-73
2022/07/26 03:35:52;;;;;;;;;;;17.30;84.80;;;;;;5017438;28;19928;-73
2022/07/26 03:38:21;;;;;;;;;;;17.40;85.10;;;;;;5035836;28;20286;-73
2022/07/26 03:40:48;;;;;;;;;;;17.30;85.00;;;;;;5036724;28;19928;-73
2022/07/26 03:43:16;;;;;;;;;;;17.30;85.20;;;;;;5036310;28;20260;-73
2022/07/26 03:45:49;;;;;;;;;;;17.30;85.20;;;;;;5035490;28;19925;-74
2022/07/26 03:48:20;;;;;;;;;;;17.30;85.40;;;;;;5001022;28;19947;-74
2022/07/26 03:50:48;;;;;;;;;;;17.20;86.30;;;;;;5035434;28;20279;-74
2022/07/26 03:53:16;;;;;;;;;;;17.20;86.30;;;;;;5018132;28;20367;-73
2022/07/26 03:58:29;;;;;;;;;;;17.10;86.60;;;;;;5018251;28;19923;-73
2022/07/26 04:00:56;;;;;;;;;;;17.10;87.00;;;;;;5016892;28;19921;-74
2022/07/26 04:03:24;;;;;;;;;;;17.10;87.10;;;;;;5035196;28;20343;-73
2022/07/26 04:05:51;;;;;;;;;;;17.20;87.70;;;;;;5017920;28;19925;-73
2022/07/26 04:08:19;;;;;;;;;;;17.20;87.60;;;;;;5034678;28;19921;-74
2022/07/26 04:10:46;;;;;;;;;;;17.10;88.60;;;;;;5035134;28;19928;-74
2022/07/26 04:13:14;;;;;;;;;;;17.10;88.80;;;;;;5035004;28;19928;-74
2022/07/26 04:15:41;;;;;;;;;;;17.00;89.90;;;;;;5016587;28;20390;-73
2022/07/26 04:18:09;;;;;;;;;;;17.00;89.20;;;;;;5017776;28;19925;-74
2022/07/26 04:20:36;;;;;;;;;;;16.90;90.00;;;;;;5016896;28;19921;-74
2022/07/26 04:23:03;;;;;;;;;;;16.90;90.20;;;;;;5017957;28;19921;-74
2022/07/26 04:25:37;;;;;;;;;;;16.80;90.50;;;;;;5035421;28;19928;-73
2022/07/26 04:28:08;;;;;;;;;;;16.80;90.90;;;;;;5017475;28;19921;-74
2022/07/26 04:30:36;;;;;;;;;;;16.80;90.90;;;;;;5017741;28;19935;-74
2022/07/26 04:33:04;;;;;;;;;;;16.70;91.40;;;;;;5018072;28;19928;-74
2022/07/26 04:35:31;;;;;;;;;;;16.70;91.10;;;;;;5034023;28;20367;-73
2022/07/26 04:38:00;;;;;;;;;;;16.70;91.10;;;;;;5017668;28;20375;-73
2022/07/26 04:40:32;;;;;;;;;;;16.70;91.10;;;;;;5029533;28;19921;-73
2022/07/26 04:43:00;;;;;;;;;;;16.80;91.00;;;;;;5054243;28;20359;-73
2022/07/26 04:45:28;;;;;;;;;;;16.80;90.90;;;;;;5055031;28;19927;-74
2022/07/26 04:47:55;;;;;;;;;;;16.90;90.80;;;;;;5053987;28;19927;-73
2022/07/26 04:50:23;;;;;;;;;;;16.90;90.80;;;;;;5055199;28;20366;-74
2022/07/26 04:52:51;;;;;;;;;;;16.90;90.80;;;;;;5054658;28;19928;-73
2022/07/26 04:55:18;;;;;;;;;;;16.90;90.70;;;;;;5052792;28;19927;-74
2022/07/26 04:57:46;;;;;;;;;;;17.00;90.70;;;;;;5053799;28;19927;-74
2022/07/26 05:00:15;;;;;;;;;;;17.00;90.60;;;;;;5053821;28;19920;-73
2022/07/26 05:02:49;;;;;;;;;;;17.00;90.40;;;;;;5052806;28;19921;-74
2022/07/26 05:05:17;;;;;;;;;;;17.00;90.40;;;;;;5053993;28;19921;-74
2022/07/26 05:07:45;;;;;;;;;;;17.00;90.30;;;;;;5035981;28;19920;-74
2022/07/26 05:10:13;;;;;;;;;;;17.10;90.40;;;;;;5054711;28;20275;-74
2022/07/26 05:12:41;;;;;;;;;;;17.00;90.30;;;;;;5054456;28;19920;-74
2022/07/26 05:15:09;;;;;;;;;;;17.00;90.30;;;;;;5053472;28;19931;-74
2022/07/26 05:17:41;;;;;;;;;;;17.00;90.20;;;;;;5054501;28;19921;-74
2022/07/26 05:20:10;;;;;;;;;;;17.00;90.30;;;;;;5054559;28;19921;-74
2022/07/26 05:22:38;;;;;;;;;;;17.00;90.30;;;;;;5052536;28;20267;-74
2022/07/26 05:25:06;;;;;;;;;;;17.00;90.40;;;;;;5054916;28;20283;-73
2022/07/26 05:27:34;;;;;;;;;;;17.10;90.40;;;;;;5056178;28;19920;-74
2022/07/26 05:30:02;;;;;;;;;;;17.00;90.30;;;;;;5058026;28;19928;-74
2022/07/26 05:32:29;;;;;;;;;;;17.10;90.40;;;;;;5058357;28;19920;-73
2022/07/26 05:34:57;;;;;;;;;;;17.10;90.50;;;;;;5056052;28;19936;-74
2022/07/26 05:37:24;;;;;;;;;;;17.10;90.40;;;;;;5057912;28;20228;-73
2022/07/26 05:39:51;;;;;;;;;;;17.10;90.50;;;;;;5055138;28;19943;-74
2022/07/26 05:42:19;;;;;;;;;;;17.10;90.40;;;;;;5019636;28;19932;-74
2022/07/26 05:44:46;;;;;;;;;;;17.10;90.50;;;;;;5020647;28;19931;-74
2022/07/26 05:47:13;;;;;;;;;;;17.20;90.70;;;;;;5019562;28;19921;-74
2022/07/26 05:49:41;;;;;;;;;;;17.10;91.70;;;;;;5020355;28;19921;-73
2022/07/26 05:52:08;;;;;;;;;;;17.10;92.00;;;;;;5037835;28;20255;-74
2022/07/26 05:54:36;;;;;;;;;;;17.00;92.80;;;;;;5019468;28;19933;-74
2022/07/26 05:57:03;;;;;;;;;;;16.80;93.70;;;;;;5020315;28;19921;-73
2022/07/26 05:59:31;;;;;;;;;;;16.60;94.20;;;;;;5020276;28;19932;-74
2022/07/26 06:01:58;;;;;;;;;;;16.50;94.80;;;;;;5019330;28;19928;-74
2022/07/26 06:04:28;;;;;;;;;;;16.40;95.30;;;;;;5004467;28;19921;-73
2022/07/26 06:06:55;;;;;;;;;;;16.30;96.10;;;;;;5020384;28;19921;-73
2022/07/26 06:09:23;;;;;;;;;;;16.30;96.80;;;;;;5036341;28;19944;-73
2022/07/26 06:11:51;;;;;;;;;;;16.40;96.80;;;;;;5004226;28;19940;-74
2022/07/26 06:14:19;;;;;;;;;;;16.30;97.10;;;;;;5036575;28;19944;-73
2022/07/26 06:16:47;;;;;;;;;;;16.30;97.80;;;;;;5019807;28;20355;-74
2022/07/26 06:19:14;;;;;;;;;;;16.30;97.80;;;;;;5020650;28;20271;-74
2022/07/26 06:21:44;;;;;;;;;;;16.30;97.70;;;;;;5019201;28;20275;-73
2022/07/26 06:24:12;;;;;;;;;;;16.40;97.70;;;;;;5037035;28;19921;-74
2022/07/26 06:26:39;;;;;;;;;;;17.30;97.60;;;;;;5037033;28;19928;-73
2022/07/26 06:29:07;;;;;;;;;;;16.40;97.10;;;;;;5018665;28;19921;-73
2022/07/26 06:31:34;;;;;;;;;;;16.40;96.90;;;;;;5003270;28;19921;-74
2022/07/26 06:34:02;;;;;;;;;;;16.40;97.40;;;;;;5018654;28;19920;-73
2022/07/26 06:36:29;;;;;;;;;;;16.40;97.40;;;;;;5035758;28;19928;-73
2022/07/26 06:38:57;;;;;;;;;;;16.40;97.20;;;;;;5036929;28;19928;-73
2022/07/26 06:41:25;;;;;;;;;;;16.30;97.80;;;;;;5035693;28;19921;-73
2022/07/26 06:43:52;;;;;;;;;;;16.30;97.70;;;;;;5019316;28;19920;-73
2022/07/26 06:46:20;;;;;;;;;;;16.20;98.30;;;;;;5036401;28;19921;-73
2022/07/26 06:48:48;;;;;;;;;;;16.30;99.20;;;;;;5035189;28;19932;-73
2022/07/26 06:51:23;;;;;;;;;;;16.30;98.50;;;;;;5019040;28;19925;-73
2022/07/26 06:53:50;;;;;;;;;;;16.40;98.30;;;;;;5036519;28;19921;-73
2022/07/26 06:56:18;;;;;;;;;;;16.40;98.80;;;;;;5001512;28;19921;-73
2022/07/26 06:58:46;;;;;;;;;;;16.40;98.30;;;;;;5036344;28;19928;-73
2022/07/26 07:01:14;;;;;;;;;;;16.40;98.10;;;;;;5001520;28;20279;-73
2022/07/26 07:04:01;;;;;;;;;;;16.50;98.00;;;;;;5021774;28;19921;-73
2022/07/26 07:06:28;;;;;;;;;;;16.50;98.20;;;;;;5036106;28;19939;-73
2022/07/26 07:08:56;;;;;;;;;;;16.50;98.70;;;;;;5034843;28;20375;-73
2022/07/26 07:11:23;;;;;;;;;;;16.60;97.80;;;;;;5018623;28;19936;-73
2022/07/26 07:13:52;;;;;;;;;;;16.70;97.50;;;;;;5018774;28;19944;-73
2022/07/26 07:16:19;;;;;;;;;;;16.70;97.50;;;;;;4999654;28;19922;-73
2022/07/26 07:18:47;;;;;;;;;;;16.70;98.00;;;;;;5016152;28;19921;-73
2022/07/26 07:21:15;;;;;;;;;;;16.70;97.00;;;;;;5014995;28;19921;-73
2022/07/26 07:23:43;;;;;;;;;;;16.70;97.10;;;;;;4998896;28;19921;-74
2022/07/26 07:26:10;;;;;;;;;;;16.70;97.30;;;;;;5015822;28;19929;-74
2022/07/26 07:28:38;;;;;;;;;;;16.60;97.10;;;;;;4997635;28;19936;-73
2022/07/26 07:31:05;;;;;;;;;;;16.70;96.70;;;;;;4998499;28;19921;-74
2022/07/26 07:33:34;;;;;;;;;;;16.70;96.80;;;;;;5019963;28;19921;-72
2022/07/26 07:36:20;;;;;;;;;;;16.60;96.90;;;;;;5033414;28;20312;-73
2022/07/26 07:38:48;;;;;;;;;;;16.60;96.80;;;;;;5007004;28;19921;-72
2022/07/26 07:41:17;;;;;;;;;;;16.70;97.30;;;;;;5032834;28;19928;-72
2022/07/26 07:43:45;;;;;;;;;;;16.80;97.10;;;;;;5055471;28;19988;-73
2022/07/26 07:46:12;;;;;;;;;;;16.90;96.60;;;;;;5055353;28;19920;-72
2022/07/26 07:48:40;;;;;;;;;;;17.00;96.20;;;;;;5054305;28;19921;-72
2022/07/26 07:51:13;;;;;;;;;;;17.00;95.80;;;;;;5049059;28;19921;-73
2022/07/26 07:53:42;;;;;;;;;;;17.00;96.00;;;;;;5035892;28;19921;-72
2022/07/26 07:56:23;;;;;;;;;;;17.00;95.50;;;;;;5035553;28;19928;-72
2022/07/26 07:58:50;;;;;;;;;;;17.00;95.70;;;;;;5035370;28;19921;-72
2022/07/26 08:01:18;;;;;;;;;;;17.00;95.50;;;;;;5034703;28;19944;-73
2022/07/26 08:03:46;;;;;;;;;;;16.90;95.50;;;;;;5027805;28;19928;-74
2022/07/26 08:06:17;;;;;;;;;;;16.90;95.40;;;;;;5054238;28;19920;-73
2022/07/26 08:08:44;;;;;;;;;;;17.00;95.50;;;;;;5053120;28;19925;-73
2022/07/26 08:11:15;;;;;;;;;;;17.00;95.30;;;;;;5055690;28;19921;-73
2022/07/26 08:13:42;;;;;;;;;;;17.00;95.30;;;;;;5055252;28;19920;-73
2022/07/26 08:16:14;;;;;;;;;;;17.10;94.80;;;;;;5053628;28;19936;-73
2022/07/26 08:18:42;;;;;;;;;;;17.10;94.40;;;;;;5055584;28;19920;-73
2022/07/26 08:21:24;;;;;;;;;;;17.10;94.10;;;;;;5053317;28;19936;-73
2022/07/26 08:23:56;;;;;;;;;;;17.30;93.90;;;;;;5055014;28;19944;-73
2022/07/26 08:26:23;;;;;;;;;;;17.40;93.90;;;;;;5055530;28;19921;-73
2022/07/26 08:28:51;;;;;;;;;;;17.50;93.70;;;;;;5054053;28;20271;-73
2022/07/26 08:31:27;;;;;;;;;;;17.60;93.40;;;;;;5037641;28;19921;-74
2022/07/26 08:33:55;;;;;;;;;;;17.60;93.50;;;;;;5053962;28;19929;-71
2022/07/26 08:36:22;;;;;;;;;;;17.60;93.50;;;;;;5054751;28;20267;-71
2022/07/26 08:38:51;;;;;;;;;;;17.60;93.30;;;;;;5054896;28;19935;-71
2022/07/26 08:41:18;;;;;;;;;;;17.50;93.30;;;;;;5052808;28;19920;-71
2022/07/26 08:43:46;;;;;;;;;;;17.50;93.40;;;;;;5055167;28;19928;-71
2022/07/26 08:46:23;;;;;;;;;;;17.60;93.40;;;;;;5054002;28;19928;-71
2022/07/26 08:48:54;;;;;;;;;;;17.50;93.30;;;;;;5053391;28;19921;-71
2022/07/26 08:51:22;;;;;;;;;;;17.50;93.40;;;;;;5053403;28;19921;-71
2022/07/26 08:53:52;;;;;;;;;;;17.50;93.30;;;;;;5055089;28;20020;-71
2022/07/26 08:56:20;;;;;;;;;;;17.60;93.10;;;;;;5054848;28;19920;-71
2022/07/26 08:58:47;;;;;;;;;;;17.60;92.90;;;;;;5054533;28;19920;-71
2022/07/26 09:01:15;;;;;;;;;;;17.70;92.80;;;;;;5056194;28;19931;-71
2022/07/26 09:03:43;;;;;;;;;;;17.70;92.70;;;;;;5058468;28;19921;-71
2022/07/26 09:06:11;;;;;;;;;;;17.80;92.60;;;;;;5058477;28;19928;-71
2022/07/26 09:08:39;;;;;;;;;;;17.90;92.40;;;;;;5056516;28;19921;-71
2022/07/26 09:11:22;;;;;;;;;;;18.10;92.40;;;;;;5057744;28;19921;-71
2022/07/26 09:13:50;;;;;;;;;;;18.30;92.20;;;;;;5058650;28;20262;-71
2022/07/26 09:16:18;;;;;;;;;;;18.40;91.40;;;;;;5057311;28;19920;-71
2022/07/26 09:18:45;;;;;;;;;;;18.60;91.30;;;;;;5057535;28;19927;-71
2022/07/26 09:21:32;;;;;;;;;;;18.70;90.80;;;;;;5057625;28;19928;-71
2022/07/26 09:23:59;;;;;;;;;;;19.00;91.10;;;;;;5058087;28;20382;-71
2022/07/26 09:26:27;;;;;;;;;;;19.20;90.50;;;;;;5057837;28;19932;-71
2022/07/26 09:29:03;;;;;;;;;;;19.30;90.00;;;;;;5056394;28;19951;-71
2022/07/26 09:31:30;;;;;;;;;;;19.40;89.80;;;;;;5057698;28;19920;-70
2022/07/26 09:33:58;;;;;;;;;;;19.60;88.30;;;;;;5056997;28;19924;-71
2022/07/26 09:36:26;;;;;;;;;;;19.70;88.20;;;;;;5057779;28;20351;-70
2022/07/26 09:38:57;;;;;;;;;;;19.90;88.20;;;;;;5057625;28;20133;-72
2022/07/26 09:41:25;;;;;;;;;;;19.90;87.30;;;;;;5055803;28;19931;-70
2022/07/26 09:43:53;;;;;;;;;;;19.90;86.30;;;;;;5057940;28;20290;-70
2022/07/26 09:46:21;;;;;;;;;;;19.80;87.60;;;;;;5057450;28;19935;-71
2022/07/26 09:48:49;;;;;;;;;;;19.80;86.90;;;;;;5055710;28;19935;-70
2022/07/26 09:51:41;;;;;;;;;;;19.70;87.30;;;;;;5057401;28;19928;-70
2022/07/26 09:54:09;;;;;;;;;;;19.70;86.10;;;;;;5056580;28;19927;-72
2022/07/26 09:56:44;;;;;;;;;;;19.50;86.70;;;;;;5057420;28;19931;-70
2022/07/26 09:59:13;;;;;;;;;;;19.50;86.50;;;;;;5057447;28;19921;-72
2022/07/26 10:01:41;;;;;;;;;;;19.40;87.10;;;;;;5056032;28;19927;-70
2022/07/26 10:04:08;;;;;;;;;;;19.30;87.30;;;;;;5056346;28;20259;-71
2022/07/26 10:06:37;;;;;;;;;;;19.20;87.60;;;;;;5057178;28;19920;-70
2022/07/26 10:09:04;;;;;;;;;;;19.10;87.70;;;;;;5056071;28;19932;-72
2022/07/26 10:11:44;;;;;;;;;;;19.10;87.80;;;;;;5056710;28;20263;-72
2022/07/26 10:14:31;;;;;;;;;;;19.10;87.40;;;;;;5056263;28;19931;-71
2022/07/26 10:17:18;;;;;;;;;;;19.20;87.70;;;;;;5056129;28;19921;-71
2022/07/26 10:19:46;;;;;;;;;;;19.30;86.80;;;;;;5043929;28;20366;-71
2022/07/26 10:22:29;;;;;;;;;;;19.50;86.10;;;;;;5055977;28;20283;-70
2022/07/26 10:25:16;;;;;;;;;;;19.70;86.80;;;;;;5055861;28;19933;-72
2022/07/26 10:27:45;;;;;;;;;;;19.90;85.50;;;;;;5055729;28;19924;-72
2022/07/26 10:30:18;;;;;;;;;;;20.10;85.50;;;;;;5056603;28;19928;-70
2022/07/26 10:32:49;;;;;;;;;;;20.30;84.30;;;;;;5056629;28;19928;-71
2022/07/26 10:35:29;;;;;;;;;;;20.50;83.50;;;;;;5055889;28;19931;-70
2022/07/26 10:38:01;;;;;;;;;;;20.70;83.10;;;;;;5055812;28;19928;-71
2022/07/26 10:40:29;;;;;;;;;;;20.90;82.20;;;;;;5055777;28;20298;-71
2022/07/26 10:43:13;;;;;;;;;;;21.00;82.10;;;;;;5056198;28;19921;-72
2022/07/26 10:46:16;;;;;;;;;;;21.20;81.90;;;;;;5055378;28;19921;-72
2022/07/26 10:49:02;;;;;;;;;;;21.40;80.40;;;;;;5038464;28;19921;-71
2022/07/26 10:51:34;;;;;;;;;;;21.40;79.90;;;;;;5057114;28;19936;-72
2022/07/26 10:54:11;;;;;;;;;;;21.50;79.60;;;;;;5055173;28;19924;-72
2022/07/26 10:56:39;;;;;;;;;;;21.40;78.80;;;;;;5056717;28;19920;-72
2022/07/26 10:59:07;;;;;;;;;;;21.50;79.00;;;;;;5056400;28;19921;-72
2022/07/26 11:01:36;;;;;;;;;;;21.60;77.90;;;;;;5055530;28;20263;-72
2022/07/26 11:04:05;;;;;;;;;;;21.70;77.10;;;;;;5056423;28;19921;-72
2022/07/26 11:06:32;;;;;;;;;;;21.90;77.70;;;;;;5056362;28;19920;-72
2022/07/26 11:09:11;;;;;;;;;;;22.80;77.20;;;;;;5055202;28;19920;-72
2022/07/26 11:11:39;;;;;;;;;;;22.20;76.80;;;;;;5055798;28;20362;-72
2022/07/26 11:14:14;;;;;;;;;;;22.20;76.50;;;;;;5055359;28;19932;-72
2022/07/26 11:16:44;;;;;;;;;;;22.30;74.90;;;;;;5055097;28;19920;-72
2022/07/26 11:19:12;;;;;;;;;;;22.20;77.80;;;;;;5055984;28;19929;-72
2022/07/26 11:21:40;;;;;;;;;;;22.10;75.00;;;;;;5055419;28;19928;-72
2022/07/26 11:24:07;;;;;;;;;;;22.00;75.50;;;;;;5055687;28;19920;-72
2022/07/26 11:26:39;;;;;;;;;;;22.00;76.60;;;;;;5055653;28;20332;-73
2022/07/26 11:29:06;;;;;;;;;;;22.20;75.80;;;;;;5054816;28;19939;-73
2022/07/26 11:31:36;;;;;;;;;;;22.10;76.60;;;;;;5055790;28;19920;-72
2022/07/26 11:34:21;;;;;;;;;;;22.20;75.00;;;;;;5054763;28;20378;-72
2022/07/26 11:36:49;;;;;;;;;;;22.20;75.70;;;;;;5055770;28;19927;-71
2022/07/26 11:39:21;;;;;;;;;;;22.20;77.80;;;;;;5054189;28;19925;-71
2022/07/26 11:41:51;;;;;;;;;;;22.00;77.40;;;;;;5035646;28;19940;-71
2022/07/26 11:44:19;;;;;;;;;;;21.90;77.80;;;;;;5035717;28;19921;-72
2022/07/26 11:46:47;;;;;;;;;;;21.80;78.10;;;;;;5035344;28;19921;-71
2022/07/26 11:49:14;;;;;;;;;;;21.60;78.40;;;;;;5034412;28;19928;-70
2022/07/26 11:51:56;;;;;;;;;;;21.60;79.00;;;;;;5035405;28;19925;-71
2022/07/26 11:54:25;;;;;;;;;;;21.60;78.40;;;;;;5017179;28;19932;-70
2022/07/26 11:57:02;;;;;;;;;;;21.50;77.00;;;;;;5035234;28;19921;-71
2022/07/26 11:59:31;;;;;;;;;;;21.50;77.80;;;;;;5035194;28;19936;-68
2022/07/26 12:02:00;;;;;;;;;;;21.40;77.80;;;;;;5034121;28;19928;-70
2022/07/26 12:04:28;;;;;;;;;;;21.30;78.20;;;;;;5035253;28;19935;-70
2022/07/26 12:06:56;;;;;;;;;;;21.40;77.90;;;;;;5017612;28;19921;-71
2022/07/26 12:09:27;;;;;;;;;;;21.30;77.50;;;;;;5034047;28;20359;-70
2022/07/26 12:11:55;;;;;;;;;;;21.40;77.60;;;;;;5035099;28;19929;-70
2022/07/26 12:14:26;;;;;;;;;;;21.50;77.30;;;;;;5034251;28;20336;-71
2022/07/26 12:16:54;;;;;;;;;;;21.50;76.90;;;;;;5034970;28;19921;-71
2022/07/26 12:19:23;;;;;;;;;;;21.50;76.60;;;;;;5034835;28;19921;-70
2022/07/26 12:21:51;;;;;;;;;;;21.60;75.80;;;;;;5016295;28;20035;-71
2022/07/26 12:24:38;;;;;;;;;;;21.70;76.00;;;;;;5035119;28;19921;-73
2022/07/26 12:27:06;;;;;;;;;;;21.80;75.30;;;;;;5035376;28;19921;-73
2022/07/26 12:29:37;;;;;;;;;;;21.80;75.30;;;;;;5017212;28;19921;-72
2022/07/26 12:32:06;;;;;;;;;;;21.80;74.60;;;;;;5035690;28;19921;-72
2022/07/26 12:34:39;;;;;;;;;;;21.80;76.00;;;;;;5036199;28;19921;-72
2022/07/26 12:37:16;;;;;;;;;;;21.80;75.60;;;;;;5039155;28;19997;-72
2022/07/26 12:40:02;;;;;;;;;;;21.70;75.40;;;;;;5039619;28;19921;-72
2022/07/26 12:42:31;;;;;;;;;;;21.60;75.00;;;;;;5038124;28;19928;-72
2022/07/26 12:45:01;;;;;;;;;;;21.50;74.90;;;;;;5039165;28;19921;-72
2022/07/26 12:47:30;;;;;;;;;;;21.50;74.10;;;;;;5020996;28;19928;-72
2022/07/26 12:49:57;;;;;;;;;;;21.50;74.30;;;;;;5021614;28;19924;-72
2022/07/26 12:52:24;;;;;;;;;;;21.50;74.80;;;;;;5022171;28;19921;-72
2022/07/26 12:54:52;;;;;;;;;;;21.60;74.60;;;;;;5020877;28;19921;-72
2022/07/26 12:57:20;;;;;;;;;;;21.80;74.50;;;;;;5021525;28;19928;-72
2022/07/26 12:59:47;;;;;;;;;;;21.90;73.00;;;;;;5021768;28;19944;-72
2022/07/26 13:02:16;;;;;;;;;;;21.90;73.30;;;;;;5038356;28;20251;-72
2022/07/26 13:04:44;;;;;;;;;;;22.00;73.60;;;;;;5039072;28;19925;-72
2022/07/26 13:07:12;;;;;;;;;;;22.10;73.20;;;;;;5038106;28;19928;-72
2022/07/26 13:09:39;;;;;;;;;;;22.10;74.70;;;;;;5038575;28;19921;-72
2022/07/26 13:12:08;;;;;;;;;;;22.20;73.20;;;;;;5021681;28;19929;-78
2022/07/26 13:14:35;;;;;;;;;;;22.30;75.40;;;;;;5037882;28;20263;-78
2022/07/26 13:17:03;;;;;;;;;;;22.40;74.20;;;;;;5005430;28;19921;-76
2022/07/26 13:19:31;;;;;;;;;;;22.50;72.90;;;;;;5039900;28;19921;-76
2022/07/26 13:22:06;;;;;;;;;;;22.40;73.50;;;;;;5003846;28;19948;-76
2022/07/26 13:24:39;;;;;;;;;;;22.40;73.30;;;;;;5034430;28;20390;-77
2022/07/26 13:27:10;;;;;;;;;;;22.30;73.40;;;;;;5005327;28;19932;-77
2022/07/26 13:29:38;;;;;;;;;;;22.00;71.90;;;;;;5038165;28;20276;-77
2022/07/26 13:32:07;;;;;;;;;;;21.90;73.50;;;;;;5023565;28;19921;-78
2022/07/26 13:34:42;;;;;;;;;;;21.70;74.40;;;;;;5020571;28;19936;-77
2022/07/26 13:37:09;;;;;;;;;;;21.70;73.20;;;;;;5025156;28;19921;-76
2022/07/26 13:39:37;;;;;;;;;;;21.50;73.90;;;;;;5017304;28;20363;-76
2022/07/26 13:42:05;;;;;;;;;;;21.40;74.00;;;;;;5016286;28;20264;-76
2022/07/26 13:44:32;;;;;;;;;;;21.40;74.40;;;;;;5001021;28;19922;-76
2022/07/26 13:47:00;;;;;;;;;;;21.30;75.40;;;;;;5000663;28;19921;-76
2022/07/26 13:49:28;;;;;;;;;;;21.30;76.30;;;;;;4999869;28;19921;-77
2022/07/26 13:51:57;;;;;;;;;;;21.20;77.20;;;;;;4984532;28;20367;-76
2022/07/26 13:54:31;;;;;;;;;;;21.20;77.40;;;;;;5007056;28;19928;-77
2022/07/26 13:57:00;;;;;;;;;;;21.10;77.90;;;;;;5002505;28;20264;-76
2022/07/26 13:59:27;;;;;;;;;;;21.10;77.80;;;;;;5037049;28;20268;-76
2022/07/26 14:01:55;;;;;;;;;;;21.00;77.80;;;;;;5018962;28;20352;-76
2022/07/26 14:04:23;;;;;;;;;;;21.00;78.30;;;;;;5037474;28;19928;-76
2022/07/26 14:06:51;;;;;;;;;;;21.00;78.30;;;;;;5037641;28;19928;-76
2022/07/26 14:09:19;;;;;;;;;;;21.00;78.80;;;;;;5018493;28;19944;-76
2022/07/26 14:11:47;;;;;;;;;;;21.20;78.30;;;;;;5019830;28;19921;-76
2022/07/26 14:14:22;;;;;;;;;;;21.20;78.10;;;;;;5036813;28;19921;-76
2022/07/26 14:16:49;;;;;;;;;;;21.30;77.90;;;;;;5020261;28;19924;-76
2022/07/26 14:19:17;;;;;;;;;;;21.40;76.90;;;;;;5037227;28;19932;-76
2022/07/26 14:21:44;;;;;;;;;;;21.60;76.00;;;;;;5036085;28;19921;-76
2022/07/26 14:24:25;;;;;;;;;;;21.70;75.50;;;;;;5019321;28;19925;-76
2022/07/26 14:26:55;;;;;;;;;;;21.90;74.50;;;;;;5019637;28;19928;-76
2022/07/26 14:29:26;;;;;;;;;;;22.00;74.70;;;;;;5035936;28;19928;-76
2022/07/26 14:31:53;;;;;;;;;;;22.20;74.30;;;;;;5036925;28;19921;-76